createdAt,value
2018-10-04T00:02:04.046Z,2.20
2018-10-04T00:04:32.154Z,2.33
2018-10-04T00:07:00.265Z,2.30
2018-10-04T00:09:28.368Z,2.10
2018-10-04T00:11:56.553Z,2.07
2018-10-04T00:14:24.666Z,2.00
2018-10-04T00:16:52.798Z,2.10
2018-10-04T00:19:20.958Z,1.90
2018-10-04T00:21:49.068Z,2.07
2018-10-04T00:24:17.191Z,2.03
2018-10-04T00:26:45.375Z,2.43
2018-10-04T00:29:13.522Z,2.30
2018-10-04T00:31:42.148Z,2.40
2018-10-04T00:34:10.213Z,2.13
2018-10-04T00:36:38.323Z,1.90
2018-10-04T00:39:06.814Z,2.20
2018-10-04T00:41:34.936Z,2.27
2018-10-04T00:44:03.041Z,2.37
2018-10-04T00:46:31.151Z,2.60
2018-10-04T00:48:59.266Z,2.10
2018-10-04T00:51:27.610Z,2.10
2018-10-04T00:53:55.742Z,2.20
2018-10-04T00:56:24.562Z,1.90
2018-10-04T00:58:53.031Z,1.90
2018-10-04T01:01:21.148Z,2.07
2018-10-04T01:03:49.307Z,2.13
2018-10-04T01:06:17.430Z,2.23
2018-10-04T01:08:45.542Z,2.17
2018-10-04T01:11:13.659Z,2.17
2018-10-04T01:13:41.790Z,1.70
2018-10-04T01:16:09.908Z,1.90
2018-10-04T01:18:55.120Z,1.90
2018-10-04T01:21:23.593Z,2.07
2018-10-04T01:23:52.302Z,1.90
2018-10-04T01:26:20.778Z,2.00
2018-10-04T01:28:49.455Z,1.77
2018-10-04T01:31:17.977Z,2.27
2018-10-04T01:33:46.218Z,2.17
2018-10-04T01:36:14.390Z,2.00
2018-10-04T01:38:42.556Z,1.97
2018-10-04T01:41:10.682Z,2.10
2018-10-04T01:43:38.803Z,2.70
2018-10-04T01:46:07.089Z,2.10
2018-10-04T01:48:35.223Z,1.93
2018-10-04T01:51:03.362Z,1.97
2018-10-04T01:53:31.522Z,2.07
2018-10-04T01:55:59.751Z,1.83
2018-10-04T01:58:27.881Z,2.00
2018-10-04T02:00:56.011Z,2.20
2018-10-04T02:03:24.675Z,1.87
2018-10-04T02:05:52.799Z,2.10
2018-10-04T02:08:20.931Z,1.73
2018-10-04T02:10:49.034Z,1.97
2018-10-04T02:13:17.175Z,2.10
2018-10-04T02:15:45.278Z,2.17
2018-10-04T02:18:13.416Z,1.80
2018-10-04T02:20:41.543Z,1.80
2018-10-04T02:23:09.794Z,1.87
2018-10-04T02:25:37.926Z,1.97
2018-10-04T02:28:06.055Z,1.90
2018-10-04T02:30:34.167Z,2.20
2018-10-04T02:33:02.286Z,1.80
2018-10-04T02:35:30.398Z,2.50
2018-10-04T02:37:58.767Z,1.90
2018-10-04T02:40:26.906Z,1.70
2018-10-04T02:42:55.039Z,1.87
2018-10-04T02:45:23.143Z,2.00
2018-10-04T02:47:51.257Z,2.40
2018-10-04T02:50:19.405Z,1.90
2018-10-04T02:52:47.743Z,2.00
2018-10-04T02:55:21.426Z,1.97
2018-10-04T02:57:49.574Z,1.80
2018-10-04T03:00:17.674Z,2.27
2018-10-04T03:02:45.875Z,1.73
2018-10-04T03:05:13.983Z,2.17
2018-10-04T03:07:42.098Z,2.40
2018-10-04T03:10:10.202Z,2.37
2018-10-04T03:12:38.331Z,1.83
2018-10-04T03:15:06.455Z,1.93
2018-10-04T03:17:34.587Z,2.00
2018-10-04T03:20:02.737Z,1.77
2018-10-04T03:22:30.838Z,2.00
2018-10-04T03:24:58.963Z,1.97
2018-10-04T03:27:27.065Z,2.17
2018-10-04T03:29:55.248Z,2.00
2018-10-04T03:32:23.304Z,2.50
2018-10-04T03:34:51.429Z,2.60
2018-10-04T03:37:19.552Z,1.80
2018-10-04T03:39:47.658Z,2.20
2018-10-04T03:42:15.798Z,2.43
2018-10-04T03:44:43.922Z,2.40
2018-10-04T03:47:12.144Z,2.50
2018-10-04T03:49:40.287Z,2.63
2018-10-04T03:52:08.405Z,2.23
2018-10-04T03:54:36.530Z,2.10
2018-10-04T03:57:04.915Z,2.30
2018-10-04T03:59:33.046Z,2.23
2018-10-04T04:02:01.189Z,2.00
2018-10-04T04:04:29.291Z,2.47
2018-10-04T04:06:57.407Z,2.60
2018-10-04T04:09:25.576Z,2.67
2018-10-04T04:11:53.878Z,2.40
2018-10-04T04:14:21.906Z,2.20
2018-10-04T04:16:50.131Z,2.50
2018-10-04T04:19:18.223Z,2.33
2018-10-04T04:21:46.386Z,2.57
2018-10-04T04:24:14.495Z,2.53
2018-10-04T04:26:42.602Z,2.50
2018-10-04T04:29:10.721Z,2.60
2018-10-04T04:31:38.828Z,2.33
2018-10-04T04:34:06.992Z,2.63
2018-10-04T04:36:35.130Z,2.43
2018-10-04T04:39:04.592Z,2.60
2018-10-04T04:41:32.688Z,2.80
2018-10-04T04:44:00.791Z,2.73
2018-10-04T04:46:28.986Z,2.80
2018-10-04T04:48:57.035Z,2.80
2018-10-04T04:51:25.166Z,2.90
2018-10-04T04:53:53.395Z,2.70
2018-10-04T04:56:21.511Z,2.80
2018-10-04T04:58:49.645Z,2.63
2018-10-04T05:01:17.783Z,2.60
2018-10-04T05:03:45.906Z,2.80
2018-10-04T05:06:14.061Z,2.60
2018-10-04T05:08:42.200Z,2.13
2018-10-04T05:11:10.301Z,2.30
2018-10-04T05:13:38.406Z,2.80
2018-10-04T05:16:06.614Z,2.50
2018-10-04T05:18:34.687Z,2.83
2018-10-04T05:21:02.867Z,2.33
2018-10-04T05:23:30.978Z,2.80
2018-10-04T05:25:59.122Z,2.47
2018-10-04T05:28:27.282Z,2.83
2018-10-04T05:30:55.429Z,2.50
2018-10-04T05:33:23.591Z,2.60
2018-10-04T05:35:51.718Z,2.60
2018-10-04T05:38:19.838Z,2.40
2018-10-04T05:40:47.959Z,2.60
2018-10-04T05:43:16.105Z,2.50
2018-10-04T05:45:44.231Z,2.40
2018-10-04T05:48:12.350Z,2.83
2018-10-04T05:50:40.478Z,2.60
2018-10-04T05:53:08.655Z,2.77
2018-10-04T05:55:36.746Z,2.67
2018-10-04T05:58:04.858Z,2.33
2018-10-04T06:00:34.652Z,2.93
2018-10-04T06:03:03.102Z,3.17
2018-10-04T06:05:31.642Z,2.60
2018-10-04T06:08:00.102Z,2.47
2018-10-04T06:10:28.230Z,2.50
2018-10-04T06:12:56.357Z,3.00
2018-10-04T06:15:24.518Z,2.63
2018-10-04T06:17:52.650Z,3.13
2018-10-04T06:20:20.781Z,3.20
2018-10-04T06:22:48.910Z,3.03
2018-10-04T06:25:17.035Z,3.40
2018-10-04T06:27:45.186Z,3.50
2018-10-04T06:30:13.418Z,3.73
2018-10-04T06:32:41.631Z,3.60
2018-10-04T06:35:09.757Z,4.00
2018-10-04T06:37:38.098Z,4.37
2018-10-04T06:40:06.412Z,4.20
2018-10-04T06:42:34.515Z,4.10
2018-10-04T06:45:02.658Z,4.00
2018-10-04T06:47:30.799Z,3.73
2018-10-04T06:49:59.055Z,4.00
2018-10-04T06:52:27.143Z,4.30
2018-10-04T06:54:55.282Z,4.40
2018-10-04T06:57:23.417Z,4.57
2018-10-04T06:59:51.530Z,4.40
2018-10-04T07:02:19.819Z,4.27
2018-10-04T07:04:48.420Z,4.67
2018-10-04T07:07:16.534Z,4.70
2018-10-04T07:09:44.670Z,4.80
2018-10-04T07:12:12.862Z,4.63
2018-10-04T07:14:40.998Z,5.47
2018-10-04T07:17:09.126Z,4.53
2018-10-04T07:19:37.254Z,5.10
2018-10-04T07:22:05.380Z,4.80
2018-10-04T07:24:33.631Z,5.10
2018-10-04T07:27:01.763Z,5.17
2018-10-04T07:29:29.951Z,4.87
2018-10-04T07:31:58.063Z,4.70
2018-10-04T07:34:26.197Z,4.90
2018-10-04T07:36:54.366Z,4.73
2018-10-04T07:39:22.471Z,4.93
2018-10-04T07:41:50.648Z,5.20
2018-10-04T07:44:18.723Z,5.40
2018-10-04T07:46:46.979Z,5.10
2018-10-04T07:49:15.089Z,5.13
2018-10-04T07:51:43.242Z,5.23
2018-10-04T07:54:11.334Z,5.63
2018-10-04T07:56:39.488Z,5.07
2018-10-04T07:59:07.660Z,4.70
2018-10-04T08:01:35.771Z,5.37
2018-10-04T08:04:03.930Z,4.53
2018-10-04T08:06:32.400Z,5.20
2018-10-04T08:09:00.318Z,5.40
2018-10-04T08:11:28.447Z,4.70
2018-10-04T08:13:56.571Z,5.23
2018-10-04T08:16:24.679Z,5.10
2018-10-04T08:18:52.844Z,4.97
2018-10-04T08:21:21.022Z,5.23
2018-10-04T08:23:49.125Z,5.03
2018-10-04T08:26:17.255Z,4.90
2018-10-04T08:28:45.380Z,5.47
2018-10-04T08:31:13.526Z,5.00
2018-10-04T08:33:41.685Z,5.00
2018-10-04T08:36:09.821Z,5.33
2018-10-04T08:38:37.956Z,5.30
2018-10-04T08:41:06.313Z,5.20
2018-10-04T08:43:34.433Z,5.20
2018-10-04T08:46:02.547Z,5.47
2018-10-04T08:48:30.670Z,5.20
2018-10-04T08:50:58.786Z,5.37
2018-10-04T08:53:26.966Z,4.90
2018-10-04T08:55:55.096Z,5.80
2018-10-04T08:58:23.323Z,5.97
2018-10-04T09:00:51.439Z,5.63
2018-10-04T09:03:20.254Z,5.57
2018-10-04T09:05:48.754Z,5.87
2018-10-04T09:08:17.242Z,5.77
2018-10-04T09:10:45.412Z,5.40
2018-10-04T09:13:13.602Z,5.63
2018-10-04T09:15:41.889Z,5.53
2018-10-04T09:18:10.086Z,5.37
2018-10-04T09:20:38.310Z,4.77
2018-10-04T09:23:06.502Z,5.13
2018-10-04T09:25:34.694Z,5.67
2018-10-04T09:28:03.026Z,5.40
2018-10-04T09:30:36.779Z,5.80
2018-10-04T09:33:04.965Z,5.97
2018-10-04T09:35:33.277Z,5.67
2018-10-04T09:38:01.473Z,5.53
2018-10-04T09:40:29.710Z,6.13
2018-10-04T09:42:57.923Z,6.07
2018-10-04T09:45:26.192Z,5.73
2018-10-04T09:47:55.369Z,5.43
2018-10-04T09:50:27.970Z,6.00
2018-10-04T09:52:56.214Z,6.10
2018-10-04T09:55:24.438Z,6.20
2018-10-04T09:57:52.661Z,6.57
2018-10-04T10:00:26.349Z,6.43
2018-10-04T10:02:58.710Z,5.93
2018-10-04T10:05:26.879Z,6.23
2018-10-04T10:07:55.020Z,6.23
2018-10-04T10:10:23.130Z,6.07
2018-10-04T10:12:51.252Z,6.30
2018-10-04T10:15:19.371Z,5.80
2018-10-04T10:17:47.488Z,5.97
2018-10-04T10:20:15.618Z,6.00
2018-10-04T10:22:43.750Z,6.40
2018-10-04T10:25:11.858Z,6.67
2018-10-04T10:27:39.979Z,6.33
2018-10-04T10:30:08.180Z,6.10
2018-10-04T10:32:36.309Z,6.03
2018-10-04T10:35:04.452Z,5.90
2018-10-04T10:37:32.590Z,5.93
2018-10-04T10:40:00.980Z,6.70
2018-10-04T10:42:29.031Z,6.17
2018-10-04T10:44:57.290Z,5.83
2018-10-04T10:47:25.403Z,5.90
2018-10-04T10:49:53.552Z,5.83
2018-10-04T10:52:21.686Z,5.87
2018-10-04T10:54:49.854Z,6.00
2018-10-04T10:57:17.967Z,6.07
2018-10-04T10:59:46.075Z,6.00
2018-10-04T11:02:14.221Z,6.10
2018-10-04T11:04:42.350Z,5.70
2018-10-04T11:07:10.504Z,5.70
2018-10-04T11:09:38.609Z,5.63
2018-10-04T11:12:06.738Z,5.73
2018-10-04T11:14:34.894Z,5.33
2018-10-04T11:17:03.050Z,5.50
2018-10-04T11:19:31.181Z,4.70
2018-10-04T11:21:59.323Z,5.07
2018-10-04T11:24:27.470Z,5.47
2018-10-04T11:26:55.654Z,4.80
2018-10-04T11:29:24.002Z,5.20
2018-10-04T11:31:52.078Z,4.73
2018-10-04T11:34:20.207Z,4.53
2018-10-04T11:36:48.374Z,4.70
2018-10-04T11:39:16.560Z,4.50
2018-10-04T11:41:44.696Z,4.60
2018-10-04T11:44:16.252Z,5.30
2018-10-04T11:46:45.471Z,5.50
2018-10-04T11:49:13.579Z,4.73
2018-10-04T11:51:41.879Z,5.10
2018-10-04T11:54:10.010Z,5.50
2018-10-04T11:56:38.320Z,5.90
2018-10-04T11:59:06.483Z,5.10
2018-10-04T12:01:34.631Z,5.37
2018-10-04T12:04:02.795Z,5.67
2018-10-04T12:06:30.998Z,4.93
2018-10-04T12:08:59.083Z,4.77
2018-10-04T12:11:27.246Z,4.53
2018-10-04T12:13:55.451Z,5.20
2018-10-04T12:16:23.571Z,4.70
2018-10-04T12:18:51.847Z,5.20
2018-10-04T12:21:20.415Z,5.30
2018-10-04T12:23:48.570Z,4.70
2018-10-04T12:26:17.100Z,5.37
2018-10-04T12:28:45.423Z,5.00
2018-10-04T12:31:13.674Z,5.40
2018-10-04T12:33:41.800Z,4.27
2018-10-04T12:36:09.933Z,5.03
2018-10-04T12:38:38.070Z,5.23
2018-10-04T12:41:06.204Z,5.07
2018-10-04T12:43:34.375Z,4.93
2018-10-04T12:46:02.556Z,4.60
2018-10-04T12:48:30.674Z,4.97
2018-10-04T12:50:58.846Z,4.70
2018-10-04T12:53:26.993Z,4.90
2018-10-04T12:55:55.121Z,4.20
2018-10-04T12:58:23.263Z,4.77
2018-10-04T13:00:51.510Z,4.50
2018-10-04T13:03:19.606Z,4.63
2018-10-04T13:05:47.739Z,7.07
2018-10-04T13:08:15.862Z,4.70
2018-10-04T13:10:43.987Z,5.23
2018-10-04T13:13:12.117Z,4.83
2018-10-04T13:15:40.242Z,5.07
2018-10-04T13:18:08.377Z,4.27
2018-10-04T13:20:36.582Z,4.53
2018-10-04T13:23:04.634Z,5.83
2018-10-04T13:25:32.798Z,5.10
2018-10-04T13:28:00.943Z,4.53
2018-10-04T13:30:29.089Z,4.83
2018-10-04T13:32:57.303Z,4.80
2018-10-04T13:35:25.483Z,4.23
2018-10-04T13:37:53.688Z,3.90
2018-10-04T13:40:21.802Z,4.23
2018-10-04T13:42:49.919Z,3.60
2018-10-04T13:45:18.111Z,3.70
2018-10-04T13:47:46.263Z,4.10
2018-10-04T13:50:14.379Z,4.07
2018-10-04T13:52:42.531Z,4.13
2018-10-04T13:55:10.766Z,3.53
2018-10-04T13:57:38.879Z,3.27
2018-10-04T14:00:07.015Z,3.67
2018-10-04T14:02:35.172Z,3.37
2018-10-04T14:05:03.299Z,4.17
2018-10-04T14:07:31.455Z,3.60
2018-10-04T14:09:59.567Z,3.70
2018-10-04T14:12:27.703Z,4.30
2018-10-04T14:14:56.014Z,4.90
2018-10-04T14:17:24.195Z,4.00
2018-10-04T14:19:52.303Z,3.40
2018-10-04T14:22:20.453Z,3.80
2018-10-04T14:24:48.781Z,4.63
2018-10-04T14:27:16.850Z,4.00
2018-10-04T14:29:45.067Z,3.77
2018-10-04T14:32:13.250Z,3.63
2018-10-04T14:34:41.405Z,3.63
2018-10-04T14:37:09.667Z,3.60
2018-10-04T14:39:37.935Z,2.93
2018-10-04T14:42:06.350Z,3.60
2018-10-04T14:44:34.551Z,3.43
2018-10-04T14:47:02.742Z,6.03
2018-10-04T14:49:30.858Z,7.30
2018-10-04T14:51:58.997Z,6.40
2018-10-04T14:54:27.330Z,6.80
2018-10-04T14:56:55.506Z,5.83
2018-10-04T14:59:23.674Z,6.60
2018-10-04T15:01:51.815Z,11.67
2018-10-04T15:04:19.921Z,7.20
2018-10-04T15:06:48.074Z,7.07
2018-10-04T15:09:16.257Z,6.40
2018-10-04T15:11:44.433Z,7.00
2018-10-04T15:14:12.555Z,6.20
2018-10-04T15:16:40.807Z,6.73
2018-10-04T15:19:09.000Z,6.63
2018-10-04T15:21:37.231Z,6.27
2018-10-04T15:24:05.378Z,5.83
2018-10-04T15:26:33.526Z,13.90
2018-10-04T15:29:01.710Z,6.97
2018-10-04T15:31:31.003Z,7.03
2018-10-04T15:33:59.114Z,7.17
2018-10-04T15:36:27.234Z,5.53
2018-10-04T15:38:55.371Z,5.47
2018-10-04T15:41:23.516Z,9.43
2018-10-04T15:43:51.796Z,5.67
2018-10-04T15:46:19.850Z,6.27
2018-10-04T15:48:48.096Z,5.73
2018-10-04T15:51:16.245Z,6.43
2018-10-04T15:53:44.372Z,5.77
2018-10-04T15:56:12.546Z,5.30
2018-10-04T15:58:40.816Z,6.13
2018-10-04T16:01:09.244Z,7.50
2018-10-04T16:03:37.406Z,5.97
2018-10-04T16:06:05.534Z,6.47
2018-10-04T16:08:33.692Z,6.07
2018-10-04T16:11:01.803Z,6.17
2018-10-04T16:13:29.941Z,5.90
2018-10-04T16:15:58.397Z,6.97
2018-10-04T16:18:26.574Z,7.60
2018-10-04T16:20:54.849Z,8.87
2018-10-04T16:23:23.247Z,7.60
2018-10-04T16:25:51.381Z,6.23
2018-10-04T16:28:19.554Z,7.03
2018-10-04T16:30:47.842Z,7.17
2018-10-04T16:33:15.958Z,7.40
2018-10-04T16:35:44.131Z,6.90
2018-10-04T16:38:12.344Z,7.00
2018-10-04T16:40:40.454Z,7.50
2018-10-04T16:43:08.567Z,7.70
2018-10-04T16:45:36.682Z,6.47
2018-10-04T16:48:04.826Z,7.10
2018-10-04T16:50:32.972Z,6.60
2018-10-04T16:53:01.119Z,8.33
2018-10-04T16:55:29.366Z,9.90
2018-10-04T16:57:57.510Z,7.53
2018-10-04T17:00:25.704Z,6.50
2018-10-04T17:02:53.874Z,7.13
2018-10-04T17:05:22.082Z,7.87
2018-10-04T17:07:50.193Z,7.17
2018-10-04T17:10:18.338Z,6.93
2018-10-04T17:12:46.438Z,7.87
2018-10-04T17:15:14.567Z,7.77
2018-10-04T17:17:42.703Z,6.20
2018-10-04T17:20:10.851Z,6.63
2018-10-04T17:22:38.998Z,7.13
2018-10-04T17:25:07.192Z,7.00
2018-10-04T17:27:35.362Z,7.00
2018-10-04T17:30:03.498Z,6.90
2018-10-04T17:32:31.624Z,7.67
2018-10-04T17:34:59.802Z,7.87
2018-10-04T17:37:27.932Z,8.03
2018-10-04T17:39:56.066Z,7.37
2018-10-04T17:42:24.206Z,7.47
2018-10-04T17:44:52.459Z,6.43
2018-10-04T17:47:20.611Z,6.77
2018-10-04T17:49:48.810Z,6.17
2018-10-04T17:52:16.945Z,6.63
2018-10-04T17:54:45.078Z,6.77
2018-10-04T17:57:13.182Z,7.00
2018-10-04T17:59:41.331Z,7.30
2018-10-04T18:02:09.471Z,6.83
2018-10-04T18:04:37.711Z,6.63
2018-10-04T18:07:05.882Z,6.70
2018-10-04T18:09:34.002Z,6.67
2018-10-04T18:12:02.168Z,6.43
2018-10-04T18:14:30.299Z,6.77
2018-10-04T18:16:58.411Z,6.33
2018-10-04T18:19:26.555Z,8.77
2018-10-04T18:21:54.698Z,7.67
2018-10-04T18:24:22.822Z,6.97
2018-10-04T18:26:50.986Z,10.23
2018-10-04T18:29:19.131Z,7.87
2018-10-04T18:31:47.256Z,6.53
2018-10-04T18:34:15.512Z,7.80
2018-10-04T18:36:43.765Z,6.87
2018-10-04T18:39:11.878Z,6.57
2018-10-04T18:41:40.019Z,7.10
2018-10-04T18:44:08.162Z,7.60
2018-10-04T18:46:36.287Z,6.17
2018-10-04T18:49:04.671Z,6.70
2018-10-04T18:51:32.814Z,7.00
2018-10-04T18:54:00.933Z,7.30
2018-10-04T18:56:29.050Z,6.73
2018-10-04T18:58:57.190Z,6.10
2018-10-04T19:01:25.351Z,6.30
2018-10-04T19:03:53.475Z,6.13
2018-10-04T19:06:21.582Z,6.80
2018-10-04T19:08:49.727Z,6.73
2018-10-04T19:11:17.998Z,6.37
2018-10-04T19:13:46.171Z,6.87
2018-10-04T19:16:14.442Z,6.07
2018-10-04T19:18:42.607Z,5.70
2018-10-04T19:21:10.771Z,7.37
2018-10-04T19:23:38.915Z,7.07
2018-10-04T19:26:07.102Z,6.77
2018-10-04T19:28:35.338Z,6.50
2018-10-04T19:31:03.474Z,6.63
2018-10-04T19:33:31.711Z,6.23
2018-10-04T19:35:59.832Z,6.20
2018-10-04T19:38:27.959Z,6.20
2018-10-04T19:40:56.102Z,6.70
2018-10-04T19:43:24.260Z,6.90
2018-10-04T19:45:52.541Z,6.13
2018-10-04T19:48:20.646Z,6.23
2018-10-04T19:50:48.792Z,5.80
2018-10-04T19:53:16.913Z,6.13
2018-10-04T19:55:45.178Z,6.07
2018-10-04T19:58:13.309Z,8.23
2018-10-04T20:00:41.423Z,7.60
2018-10-04T20:03:09.683Z,6.10
2018-10-04T20:05:37.822Z,5.93
2018-10-04T20:08:05.972Z,6.33
2018-10-04T20:10:34.107Z,6.47
2018-10-04T20:13:02.243Z,7.03
2018-10-04T20:15:30.426Z,7.03
2018-10-04T20:17:58.573Z,12.13
2018-10-04T20:20:26.713Z,6.70
2018-10-04T20:22:54.820Z,6.63
2018-10-04T20:25:22.939Z,7.17
2018-10-04T20:27:51.099Z,6.50
2018-10-04T20:30:19.215Z,6.80
2018-10-04T20:32:47.350Z,6.50
2018-10-04T20:35:15.493Z,6.67
2018-10-04T20:37:43.666Z,6.17
2018-10-04T20:40:11.836Z,6.67
2018-10-04T20:42:40.242Z,6.53
2018-10-04T20:45:08.366Z,6.60
2018-10-04T20:47:37.758Z,6.37
2018-10-04T20:50:05.898Z,5.93
2018-10-04T20:52:34.015Z,6.50
2018-10-04T20:55:02.161Z,6.57
2018-10-04T20:57:30.273Z,5.97
2018-10-04T20:59:58.420Z,6.37
2018-10-04T21:02:26.559Z,6.80
2018-10-04T21:04:54.675Z,6.30
2018-10-04T21:07:22.779Z,6.77
2018-10-04T21:09:50.909Z,6.63
2018-10-04T21:12:19.083Z,6.60
2018-10-04T21:14:47.215Z,7.27
2018-10-04T21:17:15.317Z,6.67
2018-10-04T21:19:43.450Z,7.00
2018-10-04T21:22:11.608Z,6.90
2018-10-04T21:24:39.755Z,6.83
2018-10-04T21:27:07.850Z,6.50
2018-10-04T21:29:36.120Z,6.70
2018-10-04T21:32:04.124Z,7.00
2018-10-04T21:34:32.254Z,6.50
2018-10-04T21:37:00.375Z,6.80
2018-10-04T21:39:28.519Z,7.23
2018-10-04T21:41:56.635Z,7.30
2018-10-04T21:44:24.769Z,7.40
2018-10-04T21:46:52.912Z,7.73
2018-10-04T21:49:21.035Z,6.97
2018-10-04T21:51:49.167Z,7.87
2018-10-04T21:54:17.274Z,7.03
2018-10-04T21:56:45.374Z,7.50
2018-10-04T21:59:13.515Z,7.67
2018-10-04T22:01:41.618Z,8.13
2018-10-04T22:04:09.730Z,6.80
2018-10-04T22:06:37.859Z,7.03
2018-10-04T22:09:07.722Z,7.03
2018-10-04T22:11:35.877Z,6.97
2018-10-04T22:14:04.015Z,6.87
2018-10-04T22:16:32.138Z,6.60
2018-10-04T22:19:00.246Z,6.40
2018-10-04T22:21:28.378Z,6.80
2018-10-04T22:23:56.499Z,6.63
2018-10-04T22:26:24.636Z,5.87
2018-10-04T22:28:52.755Z,6.10
2018-10-04T22:31:20.879Z,6.43
2018-10-04T22:33:49.002Z,6.20
2018-10-04T22:36:17.107Z,5.90
2018-10-04T22:38:45.218Z,5.80
2018-10-04T22:41:13.342Z,6.10
2018-10-04T22:43:41.455Z,5.73
2018-10-04T22:46:09.638Z,6.00
2018-10-04T22:48:37.953Z,5.50
2018-10-04T22:51:06.683Z,5.77
2018-10-04T22:53:34.842Z,5.70
2018-10-04T22:56:02.959Z,5.80
2018-10-04T22:58:31.065Z,6.13
2018-10-04T23:00:59.156Z,5.83
2018-10-04T23:03:27.291Z,5.37
2018-10-04T23:05:55.414Z,5.90
2018-10-04T23:08:23.595Z,5.70
2018-10-04T23:10:51.856Z,5.87
2018-10-04T23:13:20.022Z,6.20
2018-10-04T23:15:48.147Z,6.37
2018-10-04T23:18:16.345Z,6.27
2018-10-04T23:20:44.476Z,6.20
2018-10-04T23:23:12.590Z,6.60
2018-10-04T23:25:40.710Z,6.83
2018-10-04T23:28:08.831Z,6.97
2018-10-04T23:30:37.043Z,7.00
2018-10-04T23:33:05.871Z,7.53
2018-10-04T23:35:33.998Z,8.23
2018-10-04T23:38:02.098Z,8.60
2018-10-04T23:40:30.226Z,8.97
2018-10-04T23:42:58.339Z,9.93
2018-10-04T23:45:26.450Z,10.77
2018-10-04T23:47:54.631Z,11.43
2018-10-04T23:50:22.781Z,11.87
2018-10-04T23:52:50.902Z,12.33
2018-10-04T23:55:19.039Z,12.60
2018-10-04T23:57:47.182Z,14.27
